sensor_id;sensor_type;location;lat;lon;timestamp;temperature;humidity
12413;DHT22;13877;18.896;-99.222;2022-10-18T00:00:12;24.90;68.60
12413;DHT22;13877;18.896;-99.222;2022-10-18T00:02:39;24.80;69.00
12413;DHT22;13877;18.896;-99.222;2022-10-18T00:05:06;24.80;68.70
12413;DHT22;13877;18.896;-99.222;2022-10-18T00:07:34;24.70;69.20
12413;DHT22;13877;18.896;-99.222;2022-10-18T00:10:02;24.60;69.30
12413;DHT22;13877;18.896;-99.222;2022-10-18T00:12:32;24.50;70.10
12413;DHT22;13877;18.896;-99.222;2022-10-18T00:15:00;24.40;70.40
12413;DHT22;13877;18.896;-99.222;2022-10-18T00:17:27;24.30;70.90
12413;DHT22;13877;18.896;-99.222;2022-10-18T00:19:55;24.40;71.00
12413;DHT22;13877;18.896;-99.222;2022-10-18T00:22:21;24.30;71.50
12413;DHT22;13877;18.896;-99.222;2022-10-18T00:24:49;24.30;71.80
12413;DHT22;13877;18.896;-99.222;2022-10-18T00:27:16;24.30;72.40
12413;DHT22;13877;18.896;-99.222;2022-10-18T00:29:43;24.20;73.30
12413;DHT22;13877;18.896;-99.222;2022-10-18T00:32:09;24.20;73.00
12413;DHT22;13877;18.896;-99.222;2022-10-18T00:34:38;24.00;73.90
12413;DHT22;13877;18.896;-99.222;2022-10-18T00:37:05;23.90;74.50
12413;DHT22;13877;18.896;-99.222;2022-10-18T00:39:33;23.90;74.90
12413;DHT22;13877;18.896;-99.222;2022-10-18T00:41:59;23.90;75.10
12413;DHT22;13877;18.896;-99.222;2022-10-18T00:47:13;23.90;76.70
12413;DHT22;13877;18.896;-99.222;2022-10-18T00:49:45;23.90;79.50
12413;DHT22;13877;18.896;-99.222;2022-10-18T00:52:20;23.90;76.30
12413;DHT22;13877;18.896;-99.222;2022-10-18T00:54:49;24.00;76.20
12413;DHT22;13877;18.896;-99.222;2022-10-18T00:57:17;24.00;76.20
12413;DHT22;13877;18.896;-99.222;2022-10-18T00:59:45;24.00;76.60
12413;DHT22;13877;18.896;-99.222;2022-10-18T01:02:13;24.00;76.70
12413;DHT22;13877;18.896;-99.222;2022-10-18T01:04:47;24.00;76.00
12413;DHT22;13877;18.896;-99.222;2022-10-18T01:18:34;24.00;75.80
12413;DHT22;13877;18.896;-99.222;2022-10-18T01:23:58;23.90;77.60
12413;DHT22;13877;18.896;-99.222;2022-10-18T01:31:59;23.80;77.80
12413;DHT22;13877;18.896;-99.222;2022-10-18T01:34:30;23.80;78.00
12413;DHT22;13877;18.896;-99.222;2022-10-18T01:37:00;23.90;77.20
12413;DHT22;13877;18.896;-99.222;2022-10-18T01:39:32;24.00;77.90
12413;DHT22;13877;18.896;-99.222;2022-10-18T01:42:01;24.00;78.00
12413;DHT22;13877;18.896;-99.222;2022-10-18T01:44:32;24.00;78.10
12413;DHT22;13877;18.896;-99.222;2022-10-18T01:47:00;24.00;78.20
12413;DHT22;13877;18.896;-99.222;2022-10-18T01:49:28;24.00;79.10
12413;DHT22;13877;18.896;-99.222;2022-10-18T01:51:54;24.00;79.40
12413;DHT22;13877;18.896;-99.222;2022-10-18T01:54:35;24.10;79.40
12413;DHT22;13877;18.896;-99.222;2022-10-18T01:57:32;24.00;80.10
12413;DHT22;13877;18.896;-99.222;2022-10-18T02:00:18;24.00;79.80
12413;DHT22;13877;18.896;-99.222;2022-10-18T02:02:59;23.90;80.10
12413;DHT22;13877;18.896;-99.222;2022-10-18T02:05:37;24.00;80.10
12413;DHT22;13877;18.896;-99.222;2022-10-18T02:10:40;24.00;80.00
12413;DHT22;13877;18.896;-99.222;2022-10-18T02:13:09;24.10;80.50
12413;DHT22;13877;18.896;-99.222;2022-10-18T02:15:40;24.00;80.40
12413;DHT22;13877;18.896;-99.222;2022-10-18T02:18:13;24.00;81.00
12413;DHT22;13877;18.896;-99.222;2022-10-18T02:20:41;23.90;81.60
12413;DHT22;13877;18.896;-99.222;2022-10-18T02:23:09;23.80;81.50
12413;DHT22;13877;18.896;-99.222;2022-10-18T02:25:38;23.70;81.50
12413;DHT22;13877;18.896;-99.222;2022-10-18T02:28:05;23.70;81.50
12413;DHT22;13877;18.896;-99.222;2022-10-18T02:31:13;23.70;81.10
12413;DHT22;13877;18.896;-99.222;2022-10-18T02:33:59;23.60;81.10
12413;DHT22;13877;18.896;-99.222;2022-10-18T02:36:42;23.60;81.80
12413;DHT22;13877;18.896;-99.222;2022-10-18T02:39:17;23.60;81.10
12413;DHT22;13877;18.896;-99.222;2022-10-18T02:41:45;23.60;81.20
12413;DHT22;13877;18.896;-99.222;2022-10-18T02:44:12;23.60;81.80
12413;DHT22;13877;18.896;-99.222;2022-10-18T02:46:39;23.50;82.00
12413;DHT22;13877;18.896;-99.222;2022-10-18T02:49:06;23.50;82.10
12413;DHT22;13877;18.896;-99.222;2022-10-18T02:51:34;23.50;82.30
12413;DHT22;13877;18.896;-99.222;2022-10-18T02:54:01;23.40;82.80
12413;DHT22;13877;18.896;-99.222;2022-10-18T02:56:28;23.30;82.80
12413;DHT22;13877;18.896;-99.222;2022-10-18T02:58:55;23.30;84.00
12413;DHT22;13877;18.896;-99.222;2022-10-18T03:01:22;23.20;85.50
12413;DHT22;13877;18.896;-99.222;2022-10-18T03:03:49;23.20;88.70
12413;DHT22;13877;18.896;-99.222;2022-10-18T03:06:17;22.90;90.60
12413;DHT22;13877;18.896;-99.222;2022-10-18T03:08:44;22.60;91.20
12413;DHT22;13877;18.896;-99.222;2022-10-18T03:11:11;22.40;92.20
12413;DHT22;13877;18.896;-99.222;2022-10-18T03:13:38;22.40;92.60
12413;DHT22;13877;18.896;-99.222;2022-10-18T03:16:05;22.40;93.10
12413;DHT22;13877;18.896;-99.222;2022-10-18T03:18:32;22.40;93.50
12413;DHT22;13877;18.896;-99.222;2022-10-18T03:21:04;22.40;93.80
12413;DHT22;13877;18.896;-99.222;2022-10-18T03:23:31;22.40;94.30
12413;DHT22;13877;18.896;-99.222;2022-10-18T03:25:58;22.40;95.10
12413;DHT22;13877;18.896;-99.222;2022-10-18T03:28:25;22.30;95.40
12413;DHT22;13877;18.896;-99.222;2022-10-18T03:30:52;22.20;95.10
12413;DHT22;13877;18.896;-99.222;2022-10-18T03:33:20;22.20;94.10
12413;DHT22;13877;18.896;-99.222;2022-10-18T03:35:46;22.10;93.10
12413;DHT22;13877;18.896;-99.222;2022-10-18T03:38:13;22.10;93.00
12413;DHT22;13877;18.896;-99.222;2022-10-18T03:40:40;22.00;92.50
12413;DHT22;13877;18.896;-99.222;2022-10-18T03:43:07;21.90;92.40
12413;DHT22;13877;18.896;-99.222;2022-10-18T03:45:34;21.90;92.20
12413;DHT22;13877;18.896;-99.222;2022-10-18T03:48:01;21.90;92.40
12413;DHT22;13877;18.896;-99.222;2022-10-18T03:50:28;21.80;92.00
12413;DHT22;13877;18.896;-99.222;2022-10-18T03:52:55;21.90;92.10
12413;DHT22;13877;18.896;-99.222;2022-10-18T03:55:21;21.90;92.10
12413;DHT22;13877;18.896;-99.222;2022-10-18T03:57:48;21.90;91.20
12413;DHT22;13877;18.896;-99.222;2022-10-18T04:00:15;21.70;91.40
12413;DHT22;13877;18.896;-99.222;2022-10-18T04:02:42;21.70;91.30
12413;DHT22;13877;18.896;-99.222;2022-10-18T04:05:09;21.60;91.30
12413;DHT22;13877;18.896;-99.222;2022-10-18T04:07:36;21.60;90.80
12413;DHT22;13877;18.896;-99.222;2022-10-18T04:10:03;21.60;90.20
12413;DHT22;13877;18.896;-99.222;2022-10-18T04:12:31;21.70;89.90
12413;DHT22;13877;18.896;-99.222;2022-10-18T04:14:57;21.80;89.90
12413;DHT22;13877;18.896;-99.222;2022-10-18T04:17:24;21.70;90.00
12413;DHT22;13877;18.896;-99.222;2022-10-18T04:19:51;21.70;90.30
12413;DHT22;13877;18.896;-99.222;2022-10-18T04:22:18;21.60;92.30
12413;DHT22;13877;18.896;-99.222;2022-10-18T04:24:45;21.20;93.40
12413;DHT22;13877;18.896;-99.222;2022-10-18T04:27:12;20.80;93.90
12413;DHT22;13877;18.896;-99.222;2022-10-18T04:29:39;20.40;97.20
12413;DHT22;13877;18.896;-99.222;2022-10-18T04:32:06;20.20;99.90
12413;DHT22;13877;18.896;-99.222;2022-10-18T04:34:33;20.10;99.90
12413;DHT22;13877;18.896;-99.222;2022-10-18T04:37:00;20.10;99.90
12413;DHT22;13877;18.896;-99.222;2022-10-18T04:39:26;20.20;99.90
12413;DHT22;13877;18.896;-99.222;2022-10-18T04:41:54;20.10;99.90
12413;DHT22;13877;18.896;-99.222;2022-10-18T04:44:21;18.50;99.90
12413;DHT22;13877;18.896;-99.222;2022-10-18T04:46:48;17.60;99.90
12413;DHT22;13877;18.896;-99.222;2022-10-18T04:49:15;16.70;99.90
12413;DHT22;13877;18.896;-99.222;2022-10-18T04:51:42;16.50;99.90
12413;DHT22;13877;18.896;-99.222;2022-10-18T04:54:09;16.00;99.90
12413;DHT22;13877;18.896;-99.222;2022-10-18T04:56:37;16.00;99.90
12413;DHT22;13877;18.896;-99.222;2022-10-18T04:59:03;15.70;99.90
12413;DHT22;13877;18.896;-99.222;2022-10-18T05:01:31;15.40;99.90
12413;DHT22;13877;18.896;-99.222;2022-10-18T05:03:58;15.50;99.90
12413;DHT22;13877;18.896;-99.222;2022-10-18T05:06:25;15.60;99.90
12413;DHT22;13877;18.896;-99.222;2022-10-18T05:08:52;15.70;99.90
12413;DHT22;13877;18.896;-99.222;2022-10-18T05:11:19;15.70;99.90
12413;DHT22;13877;18.896;-99.222;2022-10-18T05:13:45;15.80;99.90
12413;DHT22;13877;18.896;-99.222;2022-10-18T05:16:13;15.80;99.90
12413;DHT22;13877;18.896;-99.222;2022-10-18T05:18:41;16.00;99.90
12413;DHT22;13877;18.896;-99.222;2022-10-18T05:21:08;16.20;99.90
12413;DHT22;13877;18.896;-99.222;2022-10-18T05:23:35;16.20;99.90
12413;DHT22;13877;18.896;-99.222;2022-10-18T05:26:05;16.40;99.90
12413;DHT22;13877;18.896;-99.222;2022-10-18T05:28:32;16.30;99.90
12413;DHT22;13877;18.896;-99.222;2022-10-18T05:31:07;16.30;99.90
12413;DHT22;13877;18.896;-99.222;2022-10-18T05:33:35;16.20;99.90
12413;DHT22;13877;18.896;-99.222;2022-10-18T05:36:02;16.30;99.90
12413;DHT22;13877;18.896;-99.222;2022-10-18T05:38:29;16.30;99.90
12413;DHT22;13877;18.896;-99.222;2022-10-18T05:40:57;16.30;99.90
12413;DHT22;13877;18.896;-99.222;2022-10-18T05:43:27;16.30;99.90
12413;DHT22;13877;18.896;-99.222;2022-10-18T05:45:54;16.10;99.90
12413;DHT22;13877;18.896;-99.222;2022-10-18T05:48:21;16.20;99.90
12413;DHT22;13877;18.896;-99.222;2022-10-18T05:50:48;16.20;99.90
12413;DHT22;13877;18.896;-99.222;2022-10-18T05:53:15;16.30;99.90
12413;DHT22;13877;18.896;-99.222;2022-10-18T05:55:42;16.40;99.90
12413;DHT22;13877;18.896;-99.222;2022-10-18T05:58:09;16.40;99.90
12413;DHT22;13877;18.896;-99.222;2022-10-18T06:00:36;16.20;99.90
12413;DHT22;13877;18.896;-99.222;2022-10-18T06:03:03;16.20;99.90
12413;DHT22;13877;18.896;-99.222;2022-10-18T06:05:31;16.20;99.90
12413;DHT22;13877;18.896;-99.222;2022-10-18T06:07:58;16.30;99.90
12413;DHT22;13877;18.896;-99.222;2022-10-18T06:10:24;16.40;99.90
12413;DHT22;13877;18.896;-99.222;2022-10-18T06:12:51;16.50;99.90
12413;DHT22;13877;18.896;-99.222;2022-10-18T06:15:19;16.50;99.90
12413;DHT22;13877;18.896;-99.222;2022-10-18T06:17:46;16.50;99.90
12413;DHT22;13877;18.896;-99.222;2022-10-18T06:20:13;16.60;99.90
12413;DHT22;13877;18.896;-99.222;2022-10-18T06:22:39;16.50;99.90
12413;DHT22;13877;18.896;-99.222;2022-10-18T06:25:07;16.40;99.90
12413;DHT22;13877;18.896;-99.222;2022-10-18T06:27:34;16.40;99.90
12413;DHT22;13877;18.896;-99.222;2022-10-18T06:30:01;16.40;99.90
12413;DHT22;13877;18.896;-99.222;2022-10-18T06:32:28;16.50;99.90
12413;DHT22;13877;18.896;-99.222;2022-10-18T06:34:54;16.60;99.90
12413;DHT22;13877;18.896;-99.222;2022-10-18T06:37:21;16.70;99.90
12413;DHT22;13877;18.896;-99.222;2022-10-18T06:39:48;16.80;99.90
12413;DHT22;13877;18.896;-99.222;2022-10-18T06:42:15;16.90;99.90
12413;DHT22;13877;18.896;-99.222;2022-10-18T06:44:42;17.00;99.90
12413;DHT22;13877;18.896;-99.222;2022-10-18T06:47:09;17.10;99.90
12413;DHT22;13877;18.896;-99.222;2022-10-18T06:49:36;17.20;99.90
12413;DHT22;13877;18.896;-99.222;2022-10-18T06:52:03;17.20;99.90
12413;DHT22;13877;18.896;-99.222;2022-10-18T06:54:33;17.30;99.90
12413;DHT22;13877;18.896;-99.222;2022-10-18T06:56:59;17.30;99.90
12413;DHT22;13877;18.896;-99.222;2022-10-18T06:59:28;17.40;99.90
12413;DHT22;13877;18.896;-99.222;2022-10-18T07:01:55;17.50;99.90
12413;DHT22;13877;18.896;-99.222;2022-10-18T07:04:22;17.50;99.90
12413;DHT22;13877;18.896;-99.222;2022-10-18T07:06:49;17.70;99.90
12413;DHT22;13877;18.896;-99.222;2022-10-18T07:09:15;17.90;99.90
12413;DHT22;13877;18.896;-99.222;2022-10-18T07:11:42;17.90;99.90
12413;DHT22;13877;18.896;-99.222;2022-10-18T07:14:09;18.00;99.90
12413;DHT22;13877;18.896;-99.222;2022-10-18T07:16:36;18.20;99.90
12413;DHT22;13877;18.896;-99.222;2022-10-18T07:19:03;18.10;99.90
12413;DHT22;13877;18.896;-99.222;2022-10-18T07:21:30;18.10;99.90
12413;DHT22;13877;18.896;-99.222;2022-10-18T07:23:57;18.00;99.90
12413;DHT22;13877;18.896;-99.222;2022-10-18T07:26:29;17.90;99.90
12413;DHT22;13877;18.896;-99.222;2022-10-18T07:29:09;17.80;99.90
12413;DHT22;13877;18.896;-99.222;2022-10-18T07:31:36;18.00;99.90
12413;DHT22;13877;18.896;-99.222;2022-10-18T07:34:09;18.00;99.90
12413;DHT22;13877;18.896;-99.222;2022-10-18T07:36:36;17.90;99.90
12413;DHT22;13877;18.896;-99.222;2022-10-18T07:39:03;18.00;99.90
12413;DHT22;13877;18.896;-99.222;2022-10-18T07:41:30;17.90;99.90
12413;DHT22;13877;18.896;-99.222;2022-10-18T07:44:00;17.70;99.90
12413;DHT22;13877;18.896;-99.222;2022-10-18T07:46:27;17.60;99.90
12413;DHT22;13877;18.896;-99.222;2022-10-18T07:48:54;17.60;99.90
12413;DHT22;13877;18.896;-99.222;2022-10-18T07:51:21;17.50;99.90
12413;DHT22;13877;18.896;-99.222;2022-10-18T07:53:49;17.60;99.90
12413;DHT22;13877;18.896;-99.222;2022-10-18T07:56:18;17.50;99.90
12413;DHT22;13877;18.896;-99.222;2022-10-18T07:58:51;17.50;99.90
12413;DHT22;13877;18.896;-99.222;2022-10-18T08:01:19;17.50;99.90
12413;DHT22;13877;18.896;-99.222;2022-10-18T08:03:46;17.60;99.90
12413;DHT22;13877;18.896;-99.222;2022-10-18T08:06:15;17.70;99.90
12413;DHT22;13877;18.896;-99.222;2022-10-18T08:08:44;17.50;99.90
12413;DHT22;13877;18.896;-99.222;2022-10-18T08:11:20;17.50;99.90
12413;DHT22;13877;18.896;-99.222;2022-10-18T08:13:48;17.50;99.90
12413;DHT22;13877;18.896;-99.222;2022-10-18T08:16:18;17.50;99.90
12413;DHT22;13877;18.896;-99.222;2022-10-18T08:18:46;17.50;99.90
12413;DHT22;13877;18.896;-99.222;2022-10-18T08:21:14;17.30;99.90
12413;DHT22;13877;18.896;-99.222;2022-10-18T08:23:42;17.30;99.90
12413;DHT22;13877;18.896;-99.222;2022-10-18T08:26:14;17.30;99.90
12413;DHT22;13877;18.896;-99.222;2022-10-18T08:28:42;17.40;99.90
12413;DHT22;13877;18.896;-99.222;2022-10-18T08:31:14;17.40;99.90
12413;DHT22;13877;18.896;-99.222;2022-10-18T08:33:46;17.40;99.90
12413;DHT22;13877;18.896;-99.222;2022-10-18T08:36:14;17.30;99.90
12413;DHT22;13877;18.896;-99.222;2022-10-18T08:38:42;17.40;99.90
12413;DHT22;13877;18.896;-99.222;2022-10-18T08:41:31;17.40;99.90
12413;DHT22;13877;18.896;-99.222;2022-10-18T08:46:46;17.50;99.90
12413;DHT22;13877;18.896;-99.222;2022-10-18T08:49:27;17.50;99.90
12413;DHT22;13877;18.896;-99.222;2022-10-18T08:51:56;17.50;99.90
12413;DHT22;13877;18.896;-99.222;2022-10-18T08:54:43;17.60;99.90
12413;DHT22;13877;18.896;-99.222;2022-10-18T08:57:16;17.70;99.90
12413;DHT22;13877;18.896;-99.222;2022-10-18T08:59:43;17.70;99.90
12413;DHT22;13877;18.896;-99.222;2022-10-18T09:02:34;17.70;99.90
12413;DHT22;13877;18.896;-99.222;2022-10-18T09:22:52;17.40;99.90
12413;DHT22;13877;18.896;-99.222;2022-10-18T09:25:23;17.50;99.90
12413;DHT22;13877;18.896;-99.222;2022-10-18T09:27:54;17.60;99.90
12413;DHT22;13877;18.896;-99.222;2022-10-18T09:36:23;17.50;99.90
12413;DHT22;13877;18.896;-99.222;2022-10-18T09:38:52;17.50;99.90
12413;DHT22;13877;18.896;-99.222;2022-10-18T09:44:29;17.40;99.90
12413;DHT22;13877;18.896;-99.222;2022-10-18T09:47:17;17.40;99.90
12413;DHT22;13877;18.896;-99.222;2022-10-18T09:50:34;17.40;99.90
12413;DHT22;13877;18.896;-99.222;2022-10-18T09:56:04;17.50;99.90
12413;DHT22;13877;18.896;-99.222;2022-10-18T09:58:47;17.50;99.90
12413;DHT22;13877;18.896;-99.222;2022-10-18T10:01:20;17.50;99.90
12413;DHT22;13877;18.896;-99.222;2022-10-18T10:03:48;17.40;99.90
12413;DHT22;13877;18.896;-99.222;2022-10-18T10:09:15;17.40;99.90
12413;DHT22;13877;18.896;-99.222;2022-10-18T10:11:47;17.40;99.90
12413;DHT22;13877;18.896;-99.222;2022-10-18T10:14:28;17.40;99.90
12413;DHT22;13877;18.896;-99.222;2022-10-18T10:16:57;17.50;99.90
12413;DHT22;13877;18.896;-99.222;2022-10-18T10:19:31;17.60;99.90
12413;DHT22;13877;18.896;-99.222;2022-10-18T10:22:24;17.60;99.90
12413;DHT22;13877;18.896;-99.222;2022-10-18T10:24:53;17.60;99.90
12413;DHT22;13877;18.896;-99.222;2022-10-18T10:27:36;17.60;99.90
12413;DHT22;13877;18.896;-99.222;2022-10-18T10:30:26;17.70;99.90
12413;DHT22;13877;18.896;-99.222;2022-10-18T10:32:54;17.80;99.90
12413;DHT22;13877;18.896;-99.222;2022-10-18T10:35:33;17.80;99.90
12413;DHT22;13877;18.896;-99.222;2022-10-18T10:38:01;17.90;99.90
12413;DHT22;13877;18.896;-99.222;2022-10-18T10:40:33;17.80;99.90
12413;DHT22;13877;18.896;-99.222;2022-10-18T10:43:30;17.80;99.90
12413;DHT22;13877;18.896;-99.222;2022-10-18T10:46:02;17.70;99.90
12413;DHT22;13877;18.896;-99.222;2022-10-18T10:51:08;17.70;99.90
12413;DHT22;13877;18.896;-99.222;2022-10-18T10:53:39;17.70;99.90
12413;DHT22;13877;18.896;-99.222;2022-10-18T10:56:20;17.70;99.90
12413;DHT22;13877;18.896;-99.222;2022-10-18T10:58:48;17.70;99.90
12413;DHT22;13877;18.896;-99.222;2022-10-18T11:01:27;17.70;99.90
12413;DHT22;13877;18.896;-99.222;2022-10-18T11:04:00;17.80;99.90
12413;DHT22;13877;18.896;-99.222;2022-10-18T11:06:56;17.70;99.90
12413;DHT22;13877;18.896;-99.222;2022-10-18T11:09:31;17.70;99.90
12413;DHT22;13877;18.896;-99.222;2022-10-18T11:14:56;17.90;99.90
12413;DHT22;13877;18.896;-99.222;2022-10-18T11:20:14;17.80;99.90
12413;DHT22;13877;18.896;-99.222;2022-10-18T11:29:11;17.80;99.90
12413;DHT22;13877;18.896;-99.222;2022-10-18T11:31:48;17.80;99.90
12413;DHT22;13877;18.896;-99.222;2022-10-18T11:57:31;17.80;99.90
12413;DHT22;13877;18.896;-99.222;2022-10-18T12:03:02;17.90;99.90
12413;DHT22;13877;18.896;-99.222;2022-10-18T12:05:35;18.00;99.90
12413;DHT22;13877;18.896;-99.222;2022-10-18T12:08:14;18.00;99.90
12413;DHT22;13877;18.896;-99.222;2022-10-18T12:10:46;18.10;99.90
12413;DHT22;13877;18.896;-99.222;2022-10-18T12:16:21;18.00;99.90
12413;DHT22;13877;18.896;-99.222;2022-10-18T12:19:11;18.00;99.90
12413;DHT22;13877;18.896;-99.222;2022-10-18T12:21:39;18.00;99.90
12413;DHT22;13877;18.896;-99.222;2022-10-18T12:24:26;17.90;99.90
12413;DHT22;13877;18.896;-99.222;2022-10-18T12:26:58;17.90;99.90
12413;DHT22;13877;18.896;-99.222;2022-10-18T12:32:08;18.00;99.90
12413;DHT22;13877;18.896;-99.222;2022-10-18T12:35:10;17.90;99.90
12413;DHT22;13877;18.896;-99.222;2022-10-18T12:37:56;17.90;99.90
12413;DHT22;13877;18.896;-99.222;2022-10-18T12:40:35;18.00;99.90
12413;DHT22;13877;18.896;-99.222;2022-10-18T12:43:08;18.00;99.90
12413;DHT22;13877;18.896;-99.222;2022-10-18T12:45:58;17.90;99.90
12413;DHT22;13877;18.896;-99.222;2022-10-18T12:48:30;18.00;99.90
12413;DHT22;13877;18.896;-99.222;2022-10-18T12:51:19;18.10;99.90
12413;DHT22;13877;18.896;-99.222;2022-10-18T13:04:34;18.20;99.90
12413;DHT22;13877;18.896;-99.222;2022-10-18T13:07:10;18.30;99.90
12413;DHT22;13877;18.896;-99.222;2022-10-18T13:10:31;18.30;99.90
12413;DHT22;13877;18.896;-99.222;2022-10-18T13:18:03;18.40;99.90
12413;DHT22;13877;18.896;-99.222;2022-10-18T13:20:39;18.40;99.90
12413;DHT22;13877;18.896;-99.222;2022-10-18T13:34:25;18.40;99.90
12413;DHT22;13877;18.896;-99.222;2022-10-18T13:37:04;18.40;99.90
12413;DHT22;13877;18.896;-99.222;2022-10-18T13:39:32;18.40;99.90
12413;DHT22;13877;18.896;-99.222;2022-10-18T13:44:33;18.30;99.90
12413;DHT22;13877;18.896;-99.222;2022-10-18T14:06:06;18.30;99.90
12413;DHT22;13877;18.896;-99.222;2022-10-18T14:08:58;18.40;99.90
12413;DHT22;13877;18.896;-99.222;2022-10-18T14:14:19;18.80;99.90
12413;DHT22;13877;18.896;-99.222;2022-10-18T14:19:41;18.80;99.90
12413;DHT22;13877;18.896;-99.222;2022-10-18T14:22:23;19.10;99.90
12413;DHT22;13877;18.896;-99.222;2022-10-18T14:24:55;19.20;99.90
12413;DHT22;13877;18.896;-99.222;2022-10-18T14:27:30;19.10;99.90
12413;DHT22;13877;18.896;-99.222;2022-10-18T14:30:13;19.30;99.90
12413;DHT22;13877;18.896;-99.222;2022-10-18T14:32:49;19.20;99.90
12413;DHT22;13877;18.896;-99.222;2022-10-18T14:35:23;19.20;99.90
12413;DHT22;13877;18.896;-99.222;2022-10-18T14:37:52;19.10;99.90
12413;DHT22;13877;18.896;-99.222;2022-10-18T14:40:26;19.30;99.90
12413;DHT22;13877;18.896;-99.222;2022-10-18T14:42:53;19.30;99.90
12413;DHT22;13877;18.896;-99.222;2022-10-18T14:45:21;19.40;99.90
12413;DHT22;13877;18.896;-99.222;2022-10-18T14:47:49;19.60;99.90
12413;DHT22;13877;18.896;-99.222;2022-10-18T14:50:25;19.80;99.90
12413;DHT22;13877;18.896;-99.222;2022-10-18T14:52:53;19.80;99.90
12413;DHT22;13877;18.896;-99.222;2022-10-18T14:55:24;19.90;99.90
12413;DHT22;13877;18.896;-99.222;2022-10-18T14:57:54;20.10;99.90
12413;DHT22;13877;18.896;-99.222;2022-10-18T15:00:39;20.40;99.90
12413;DHT22;13877;18.896;-99.222;2022-10-18T15:03:12;20.50;99.90
12413;DHT22;13877;18.896;-99.222;2022-10-18T15:08:18;20.70;99.90
12413;DHT22;13877;18.896;-99.222;2022-10-18T15:10:45;20.90;99.90
12413;DHT22;13877;18.896;-99.222;2022-10-18T15:13:14;21.10;99.90
12413;DHT22;13877;18.896;-99.222;2022-10-18T15:15:41;21.30;99.90
12413;DHT22;13877;18.896;-99.222;2022-10-18T15:18:24;21.30;99.90
12413;DHT22;13877;18.896;-99.222;2022-10-18T15:21:24;21.40;99.90
12413;DHT22;13877;18.896;-99.222;2022-10-18T15:23:52;21.80;99.90
12413;DHT22;13877;18.896;-99.222;2022-10-18T15:26:29;22.00;99.90
12413;DHT22;13877;18.896;-99.222;2022-10-18T15:28:57;22.00;99.90
12413;DHT22;13877;18.896;-99.222;2022-10-18T15:31:30;21.90;99.90
12413;DHT22;13877;18.896;-99.222;2022-10-18T15:34:25;21.80;99.90
12413;DHT22;13877;18.896;-99.222;2022-10-18T15:36:55;21.80;99.90
12413;DHT22;13877;18.896;-99.222;2022-10-18T15:39:27;22.10;99.90
12413;DHT22;13877;18.896;-99.222;2022-10-18T15:42:01;22.40;99.90
12413;DHT22;13877;18.896;-99.222;2022-10-18T15:44:49;22.60;99.90
12413;DHT22;13877;18.896;-99.222;2022-10-18T15:47:18;22.70;99.90
12413;DHT22;13877;18.896;-99.222;2022-10-18T15:49:55;22.70;99.90
12413;DHT22;13877;18.896;-99.222;2022-10-18T15:52:33;22.70;99.90
12413;DHT22;13877;18.896;-99.222;2022-10-18T15:55:40;23.10;99.90
12413;DHT22;13877;18.896;-99.222;2022-10-18T15:57:48;23.10;99.90
12413;DHT22;13877;18.896;-99.222;2022-10-18T16:00:19;23.70;99.90
12413;DHT22;13877;18.896;-99.222;2022-10-18T16:02:46;24.00;99.90
12413;DHT22;13877;18.896;-99.222;2022-10-18T16:05:15;23.70;99.90
12413;DHT22;13877;18.896;-99.222;2022-10-18T16:07:43;23.50;99.90
12413;DHT22;13877;18.896;-99.222;2022-10-18T16:10:13;24.40;99.90
12413;DHT22;13877;18.896;-99.222;2022-10-18T16:12:43;24.20;99.90
12413;DHT22;13877;18.896;-99.222;2022-10-18T16:15:10;24.80;99.90
12413;DHT22;13877;18.896;-99.222;2022-10-18T16:17:37;26.00;99.90
12413;DHT22;13877;18.896;-99.222;2022-10-18T16:20:04;26.50;99.90
12413;DHT22;13877;18.896;-99.222;2022-10-18T16:22:31;26.10;99.90
12413;DHT22;13877;18.896;-99.222;2022-10-18T16:24:58;26.80;99.90
12413;DHT22;13877;18.896;-99.222;2022-10-18T16:27:25;27.60;99.90
12413;DHT22;13877;18.896;-99.222;2022-10-18T16:29:53;26.70;99.90
12413;DHT22;13877;18.896;-99.222;2022-10-18T16:32:19;26.20;99.90
12413;DHT22;13877;18.896;-99.222;2022-10-18T16:34:46;26.00;99.90
12413;DHT22;13877;18.896;-99.222;2022-10-18T16:37:13;26.00;99.90
12413;DHT22;13877;18.896;-99.222;2022-10-18T16:39:40;25.70;99.90
12413;DHT22;13877;18.896;-99.222;2022-10-18T16:42:07;25.80;99.90
12413;DHT22;13877;18.896;-99.222;2022-10-18T16:44:35;26.10;99.90
12413;DHT22;13877;18.896;-99.222;2022-10-18T16:47:02;26.60;99.90
12413;DHT22;13877;18.896;-99.222;2022-10-18T16:49:29;26.40;99.90
12413;DHT22;13877;18.896;-99.222;2022-10-18T16:51:57;26.20;99.90
12413;DHT22;13877;18.896;-99.222;2022-10-18T16:54:25;26.80;99.90
12413;DHT22;13877;18.896;-99.222;2022-10-18T16:56:52;26.80;99.90
12413;DHT22;13877;18.896;-99.222;2022-10-18T16:59:29;26.80;99.90
12413;DHT22;13877;18.896;-99.222;2022-10-18T17:01:56;26.00;99.90
12413;DHT22;13877;18.896;-99.222;2022-10-18T17:04:23;26.60;99.90
12413;DHT22;13877;18.896;-99.222;2022-10-18T17:06:53;26.70;99.90
12413;DHT22;13877;18.896;-99.222;2022-10-18T17:09:23;26.40;99.30
12413;DHT22;13877;18.896;-99.222;2022-10-18T17:11:50;26.00;99.90
12413;DHT22;13877;18.896;-99.222;2022-10-18T17:14:17;25.90;99.90
12413;DHT22;13877;18.896;-99.222;2022-10-18T17:16:44;26.40;99.90
12413;DHT22;13877;18.896;-99.222;2022-10-18T17:19:11;26.80;99.90
12413;DHT22;13877;18.896;-99.222;2022-10-18T17:21:38;27.30;98.00
12413;DHT22;13877;18.896;-99.222;2022-10-18T17:24:05;27.50;99.80
12413;DHT22;13877;18.896;-99.222;2022-10-18T17:26:32;27.80;97.60
12413;DHT22;13877;18.896;-99.222;2022-10-18T17:29:05;28.20;97.00
12413;DHT22;13877;18.896;-99.222;2022-10-18T17:31:33;28.00;96.10
12413;DHT22;13877;18.896;-99.222;2022-10-18T17:34:01;28.00;94.80
12413;DHT22;13877;18.896;-99.222;2022-10-18T17:36:30;27.70;96.90
12413;DHT22;13877;18.896;-99.222;2022-10-18T17:38:57;27.90;95.10
12413;DHT22;13877;18.896;-99.222;2022-10-18T17:41:24;27.50;96.80
12413;DHT22;13877;18.896;-99.222;2022-10-18T17:43:51;26.90;95.40
12413;DHT22;13877;18.896;-99.222;2022-10-18T17:46:18;27.60;97.40
12413;DHT22;13877;18.896;-99.222;2022-10-18T17:48:45;27.50;98.00
12413;DHT22;13877;18.896;-99.222;2022-10-18T17:51:15;27.70;95.90
12413;DHT22;13877;18.896;-99.222;2022-10-18T17:53:42;27.60;97.60
12413;DHT22;13877;18.896;-99.222;2022-10-18T17:56:09;28.40;94.50
12413;DHT22;13877;18.896;-99.222;2022-10-18T17:58:37;28.00;96.00
12413;DHT22;13877;18.896;-99.222;2022-10-18T18:01:23;27.70;97.20
12413;DHT22;13877;18.896;-99.222;2022-10-18T18:03:59;28.90;95.50
12413;DHT22;13877;18.896;-99.222;2022-10-18T18:06:29;27.80;96.00
12413;DHT22;13877;18.896;-99.222;2022-10-18T18:08:57;28.20;95.50